sensor_id;sensor_type;location;lat;lon;timestamp;temperature;humidity
2407;DHT22;37709;53.480;9.688;2022-08-19T00:00:10;18.40;99.90
2407;DHT22;37709;53.480;9.688;2022-08-19T00:02:37;18.40;99.90
2407;DHT22;37709;53.480;9.688;2022-08-19T00:05:17;18.40;99.90
2407;DHT22;37709;53.480;9.688;2022-08-19T00:07:46;18.40;99.90
2407;DHT22;37709;53.480;9.688;2022-08-19T00:10:14;18.40;99.90
2407;DHT22;37709;53.480;9.688;2022-08-19T00:12:42;18.40;99.90
2407;DHT22;37709;53.480;9.688;2022-08-19T00:15:15;18.40;99.90
2407;DHT22;37709;53.480;9.688;2022-08-19T00:17:44;18.40;99.90
2407;DHT22;37709;53.480;9.688;2022-08-19T00:20:16;18.40;99.90
2407;DHT22;37709;53.480;9.688;2022-08-19T00:22:45;18.40;99.90
2407;DHT22;37709;53.480;9.688;2022-08-19T00:25:15;18.40;99.90
2407;DHT22;37709;53.480;9.688;2022-08-19T00:27:44;18.40;99.90
2407;DHT22;37709;53.480;9.688;2022-08-19T00:30:11;18.30;99.90
2407;DHT22;37709;53.480;9.688;2022-08-19T00:32:39;18.30;99.90
2407;DHT22;37709;53.480;9.688;2022-08-19T00:35:07;18.30;99.90
2407;DHT22;37709;53.480;9.688;2022-08-19T00:37:38;18.30;99.90
2407;DHT22;37709;53.480;9.688;2022-08-19T00:40:11;18.30;99.90
2407;DHT22;37709;53.480;9.688;2022-08-19T00:42:39;18.30;99.90
2407;DHT22;37709;53.480;9.688;2022-08-19T00:45:14;18.30;99.90
2407;DHT22;37709;53.480;9.688;2022-08-19T00:47:41;18.40;99.90
2407;DHT22;37709;53.480;9.688;2022-08-19T00:50:11;18.30;99.90
2407;DHT22;37709;53.480;9.688;2022-08-19T00:52:46;18.40;99.90
2407;DHT22;37709;53.480;9.688;2022-08-19T00:55:24;18.40;99.90
2407;DHT22;37709;53.480;9.688;2022-08-19T00:57:55;18.40;99.90
2407;DHT22;37709;53.480;9.688;2022-08-19T01:00:26;18.40;99.90
2407;DHT22;37709;53.480;9.688;2022-08-19T01:02:54;18.30;99.90
2407;DHT22;37709;53.480;9.688;2022-08-19T01:05:25;18.30;99.90
2407;DHT22;37709;53.480;9.688;2022-08-19T01:07:56;18.30;99.90
2407;DHT22;37709;53.480;9.688;2022-08-19T01:10:29;18.30;99.90
2407;DHT22;37709;53.480;9.688;2022-08-19T01:13:03;18.30;99.90
2407;DHT22;37709;53.480;9.688;2022-08-19T01:15:41;18.30;99.90
2407;DHT22;37709;53.480;9.688;2022-08-19T01:18:13;18.40;99.90
2407;DHT22;37709;53.480;9.688;2022-08-19T01:20:42;18.30;99.90
2407;DHT22;37709;53.480;9.688;2022-08-19T01:23:10;18.30;99.90
2407;DHT22;37709;53.480;9.688;2022-08-19T01:25:52;18.30;99.90
2407;DHT22;37709;53.480;9.688;2022-08-19T01:28:26;18.30;99.90
2407;DHT22;37709;53.480;9.688;2022-08-19T01:31:08;18.30;99.90
2407;DHT22;37709;53.480;9.688;2022-08-19T01:33:56;18.30;99.90
2407;DHT22;37709;53.480;9.688;2022-08-19T01:36:34;18.30;99.90
2407;DHT22;37709;53.480;9.688;2022-08-19T01:39:07;18.30;99.90
2407;DHT22;37709;53.480;9.688;2022-08-19T01:42:00;18.30;99.90
2407;DHT22;37709;53.480;9.688;2022-08-19T01:44:30;18.30;99.90
2407;DHT22;37709;53.480;9.688;2022-08-19T01:46:57;18.30;99.90
2407;DHT22;37709;53.480;9.688;2022-08-19T01:49:25;18.30;99.90
2407;DHT22;37709;53.480;9.688;2022-08-19T01:51:53;18.30;99.90
2407;DHT22;37709;53.480;9.688;2022-08-19T01:54:23;18.30;99.90
2407;DHT22;37709;53.480;9.688;2022-08-19T01:57:02;18.30;99.90
2407;DHT22;37709;53.480;9.688;2022-08-19T01:59:31;18.30;99.90
2407;DHT22;37709;53.480;9.688;2022-08-19T02:01:59;18.30;99.90
2407;DHT22;37709;53.480;9.688;2022-08-19T02:04:27;18.30;99.90
2407;DHT22;37709;53.480;9.688;2022-08-19T02:06:54;18.30;99.90
2407;DHT22;37709;53.480;9.688;2022-08-19T02:09:21;18.30;99.90
2407;DHT22;37709;53.480;9.688;2022-08-19T02:11:49;18.30;99.90
2407;DHT22;37709;53.480;9.688;2022-08-19T02:14:16;18.30;99.90
2407;DHT22;37709;53.480;9.688;2022-08-19T02:16:44;18.30;99.90
2407;DHT22;37709;53.480;9.688;2022-08-19T02:19:12;18.30;99.90
2407;DHT22;37709;53.480;9.688;2022-08-19T02:21:40;18.30;99.90
2407;DHT22;37709;53.480;9.688;2022-08-19T02:24:07;18.30;99.90
2407;DHT22;37709;53.480;9.688;2022-08-19T02:26:35;18.30;99.90
2407;DHT22;37709;53.480;9.688;2022-08-19T02:29:02;18.20;99.90
2407;DHT22;37709;53.480;9.688;2022-08-19T02:31:29;18.20;99.90
2407;DHT22;37709;53.480;9.688;2022-08-19T02:33:57;18.20;99.90
2407;DHT22;37709;53.480;9.688;2022-08-19T02:36:26;18.20;99.90
2407;DHT22;37709;53.480;9.688;2022-08-19T02:38:54;18.20;99.90
2407;DHT22;37709;53.480;9.688;2022-08-19T02:41:27;18.20;99.90
2407;DHT22;37709;53.480;9.688;2022-08-19T02:43:56;18.20;99.90
2407;DHT22;37709;53.480;9.688;2022-08-19T02:46:46;18.20;99.90
2407;DHT22;37709;53.480;9.688;2022-08-19T02:49:14;18.20;99.90
2407;DHT22;37709;53.480;9.688;2022-08-19T02:51:44;18.20;99.90
2407;DHT22;37709;53.480;9.688;2022-08-19T02:54:14;18.10;99.90
2407;DHT22;37709;53.480;9.688;2022-08-19T02:56:43;18.10;99.90
2407;DHT22;37709;53.480;9.688;2022-08-19T02:59:11;18.10;99.90
2407;DHT22;37709;53.480;9.688;2022-08-19T03:01:41;18.10;99.90
2407;DHT22;37709;53.480;9.688;2022-08-19T03:04:13;18.10;99.90
2407;DHT22;37709;53.480;9.688;2022-08-19T03:06:44;18.10;99.90
2407;DHT22;37709;53.480;9.688;2022-08-19T03:09:12;18.10;99.90
2407;DHT22;37709;53.480;9.688;2022-08-19T03:11:40;18.10;99.90
2407;DHT22;37709;53.480;9.688;2022-08-19T03:14:09;18.10;99.90
2407;DHT22;37709;53.480;9.688;2022-08-19T03:16:45;18.10;99.90
2407;DHT22;37709;53.480;9.688;2022-08-19T03:19:15;18.10;99.90
2407;DHT22;37709;53.480;9.688;2022-08-19T03:21:44;18.00;99.90
2407;DHT22;37709;53.480;9.688;2022-08-19T03:24:13;18.00;99.90
2407;DHT22;37709;53.480;9.688;2022-08-19T03:26:44;18.00;99.90
2407;DHT22;37709;53.480;9.688;2022-08-19T03:29:12;18.00;99.90
2407;DHT22;37709;53.480;9.688;2022-08-19T03:31:43;18.00;99.90
2407;DHT22;37709;53.480;9.688;2022-08-19T03:34:22;18.00;99.90
2407;DHT22;37709;53.480;9.688;2022-08-19T03:36:50;18.00;99.90
2407;DHT22;37709;53.480;9.688;2022-08-19T03:39:18;18.00;99.90
2407;DHT22;37709;53.480;9.688;2022-08-19T03:41:47;18.00;99.90
2407;DHT22;37709;53.480;9.688;2022-08-19T03:44:36;17.90;99.90
2407;DHT22;37709;53.480;9.688;2022-08-19T03:47:05;17.90;99.90
2407;DHT22;37709;53.480;9.688;2022-08-19T03:49:33;17.80;99.90
2407;DHT22;37709;53.480;9.688;2022-08-19T03:52:03;17.80;99.90
2407;DHT22;37709;53.480;9.688;2022-08-19T03:54:34;17.80;99.90
2407;DHT22;37709;53.480;9.688;2022-08-19T03:57:02;17.70;99.90
2407;DHT22;37709;53.480;9.688;2022-08-19T03:59:33;17.70;99.90
2407;DHT22;37709;53.480;9.688;2022-08-19T04:02:02;17.70;99.90
2407;DHT22;37709;53.480;9.688;2022-08-19T04:04:30;17.60;99.90
2407;DHT22;37709;53.480;9.688;2022-08-19T04:06:58;17.60;99.90
2407;DHT22;37709;53.480;9.688;2022-08-19T04:09:26;17.60;99.90
2407;DHT22;37709;53.480;9.688;2022-08-19T04:11:55;17.60;99.90
2407;DHT22;37709;53.480;9.688;2022-08-19T04:14:25;17.50;99.90
2407;DHT22;37709;53.480;9.688;2022-08-19T04:16:53;17.40;99.90
2407;DHT22;37709;53.480;9.688;2022-08-19T04:19:21;17.40;99.90
2407;DHT22;37709;53.480;9.688;2022-08-19T04:21:52;17.40;99.90
2407;DHT22;37709;53.480;9.688;2022-08-19T04:24:22;17.30;99.90
2407;DHT22;37709;53.480;9.688;2022-08-19T04:26:50;17.30;99.90
2407;DHT22;37709;53.480;9.688;2022-08-19T04:29:20;17.40;99.90
2407;DHT22;37709;53.480;9.688;2022-08-19T04:31:49;17.40;99.90
2407;DHT22;37709;53.480;9.688;2022-08-19T04:34:19;17.40;99.90
2407;DHT22;37709;53.480;9.688;2022-08-19T04:36:51;17.50;99.90
2407;DHT22;37709;53.480;9.688;2022-08-19T04:39:22;17.60;99.90
2407;DHT22;37709;53.480;9.688;2022-08-19T04:41:50;17.70;99.90
2407;DHT22;37709;53.480;9.688;2022-08-19T04:44:36;17.70;99.90
2407;DHT22;37709;53.480;9.688;2022-08-19T04:47:12;17.80;99.90
2407;DHT22;37709;53.480;9.688;2022-08-19T04:49:40;17.90;99.90
2407;DHT22;37709;53.480;9.688;2022-08-19T04:52:08;17.90;99.90
2407;DHT22;37709;53.480;9.688;2022-08-19T04:54:36;17.80;99.90
2407;DHT22;37709;53.480;9.688;2022-08-19T04:57:08;17.80;99.90
2407;DHT22;37709;53.480;9.688;2022-08-19T04:59:38;17.80;99.90
2407;DHT22;37709;53.480;9.688;2022-08-19T05:02:08;17.90;99.90
2407;DHT22;37709;53.480;9.688;2022-08-19T05:04:36;17.90;99.90
2407;DHT22;37709;53.480;9.688;2022-08-19T05:07:07;17.90;99.90
2407;DHT22;37709;53.480;9.688;2022-08-19T05:09:35;17.90;99.90
2407;DHT22;37709;53.480;9.688;2022-08-19T05:12:23;18.00;99.90
2407;DHT22;37709;53.480;9.688;2022-08-19T05:14:57;18.10;99.90
2407;DHT22;37709;53.480;9.688;2022-08-19T05:17:26;18.20;99.90
2407;DHT22;37709;53.480;9.688;2022-08-19T05:19:59;18.20;99.90
2407;DHT22;37709;53.480;9.688;2022-08-19T05:22:47;18.30;99.90
2407;DHT22;37709;53.480;9.688;2022-08-19T05:25:19;18.40;99.90
2407;DHT22;37709;53.480;9.688;2022-08-19T05:27:47;18.40;99.90
2407;DHT22;37709;53.480;9.688;2022-08-19T05:30:16;18.40;99.90
2407;DHT22;37709;53.480;9.688;2022-08-19T05:32:43;18.30;99.90
2407;DHT22;37709;53.480;9.688;2022-08-19T05:35:11;18.40;99.90
2407;DHT22;37709;53.480;9.688;2022-08-19T05:37:39;18.40;99.90
2407;DHT22;37709;53.480;9.688;2022-08-19T05:40:10;18.30;99.90
2407;DHT22;37709;53.480;9.688;2022-08-19T05:42:38;18.40;99.90
2407;DHT22;37709;53.480;9.688;2022-08-19T05:45:10;18.40;99.90
2407;DHT22;37709;53.480;9.688;2022-08-19T05:47:39;18.40;99.90
2407;DHT22;37709;53.480;9.688;2022-08-19T05:50:08;18.40;99.90
2407;DHT22;37709;53.480;9.688;2022-08-19T05:52:37;18.40;99.90
2407;DHT22;37709;53.480;9.688;2022-08-19T05:55:20;18.40;99.90
2407;DHT22;37709;53.480;9.688;2022-08-19T05:57:48;18.40;99.90
2407;DHT22;37709;53.480;9.688;2022-08-19T06:00:16;18.40;99.90
2407;DHT22;37709;53.480;9.688;2022-08-19T06:02:50;18.40;99.90
2407;DHT22;37709;53.480;9.688;2022-08-19T06:05:18;18.50;99.90
2407;DHT22;37709;53.480;9.688;2022-08-19T06:07:47;18.40;99.90
2407;DHT22;37709;53.480;9.688;2022-08-19T06:10:14;18.50;99.90
2407;DHT22;37709;53.480;9.688;2022-08-19T06:12:42;18.50;99.90
2407;DHT22;37709;53.480;9.688;2022-08-19T06:15:11;18.50;99.90
2407;DHT22;37709;53.480;9.688;2022-08-19T06:17:39;18.50;99.90
2407;DHT22;37709;53.480;9.688;2022-08-19T06:20:10;18.60;99.90
2407;DHT22;37709;53.480;9.688;2022-08-19T06:22:43;18.60;99.90
2407;DHT22;37709;53.480;9.688;2022-08-19T06:25:13;18.70;99.90
2407;DHT22;37709;53.480;9.688;2022-08-19T06:27:41;18.80;99.90
2407;DHT22;37709;53.480;9.688;2022-08-19T06:30:29;18.80;99.90
2407;DHT22;37709;53.480;9.688;2022-08-19T06:32:57;18.90;99.90
2407;DHT22;37709;53.480;9.688;2022-08-19T06:35:24;18.80;99.90
2407;DHT22;37709;53.480;9.688;2022-08-19T06:37:52;18.80;99.90
2407;DHT22;37709;53.480;9.688;2022-08-19T06:40:21;18.80;99.90
2407;DHT22;37709;53.480;9.688;2022-08-19T06:42:49;18.80;99.90
2407;DHT22;37709;53.480;9.688;2022-08-19T06:45:22;18.80;99.90
2407;DHT22;37709;53.480;9.688;2022-08-19T06:48:00;18.80;99.90
2407;DHT22;37709;53.480;9.688;2022-08-19T06:50:29;18.90;99.90
2407;DHT22;37709;53.480;9.688;2022-08-19T06:52:56;18.90;99.90
2407;DHT22;37709;53.480;9.688;2022-08-19T06:55:30;19.00;99.90
2407;DHT22;37709;53.480;9.688;2022-08-19T06:58:02;18.90;99.90
2407;DHT22;37709;53.480;9.688;2022-08-19T07:00:31;18.80;99.90
2407;DHT22;37709;53.480;9.688;2022-08-19T07:02:59;18.90;99.90
2407;DHT22;37709;53.480;9.688;2022-08-19T07:05:39;18.80;99.90
2407;DHT22;37709;53.480;9.688;2022-08-19T07:08:12;18.80;99.90
2407;DHT22;37709;53.480;9.688;2022-08-19T07:10:43;18.90;99.90
2407;DHT22;37709;53.480;9.688;2022-08-19T07:13:12;18.80;99.90
2407;DHT22;37709;53.480;9.688;2022-08-19T07:15:39;18.90;99.90
2407;DHT22;37709;53.480;9.688;2022-08-19T07:18:07;18.90;99.90
2407;DHT22;37709;53.480;9.688;2022-08-19T07:20:39;19.10;99.90
2407;DHT22;37709;53.480;9.688;2022-08-19T07:23:08;19.30;99.90
2407;DHT22;37709;53.480;9.688;2022-08-19T07:25:42;19.30;99.90
2407;DHT22;37709;53.480;9.688;2022-08-19T07:28:10;19.20;99.90
2407;DHT22;37709;53.480;9.688;2022-08-19T07:30:51;19.10;99.90
2407;DHT22;37709;53.480;9.688;2022-08-19T07:33:19;19.10;99.90
2407;DHT22;37709;53.480;9.688;2022-08-19T07:35:48;19.00;99.90
2407;DHT22;37709;53.480;9.688;2022-08-19T07:38:17;19.00;99.90
2407;DHT22;37709;53.480;9.688;2022-08-19T07:40:45;19.00;99.90
2407;DHT22;37709;53.480;9.688;2022-08-19T07:43:14;19.10;99.90
2407;DHT22;37709;53.480;9.688;2022-08-19T07:45:44;19.10;99.90
2407;DHT22;37709;53.480;9.688;2022-08-19T07:48:13;19.10;99.90
2407;DHT22;37709;53.480;9.688;2022-08-19T07:50:42;19.10;99.90
2407;DHT22;37709;53.480;9.688;2022-08-19T07:53:09;19.00;99.90
2407;DHT22;37709;53.480;9.688;2022-08-19T07:55:38;19.00;99.90
2407;DHT22;37709;53.480;9.688;2022-08-19T07:58:12;18.90;99.90
2407;DHT22;37709;53.480;9.688;2022-08-19T08:00:41;19.00;99.90
2407;DHT22;37709;53.480;9.688;2022-08-19T08:03:13;19.00;99.90
2407;DHT22;37709;53.480;9.688;2022-08-19T08:05:41;19.10;99.90
2407;DHT22;37709;53.480;9.688;2022-08-19T08:08:28;19.10;99.90
2407;DHT22;37709;53.480;9.688;2022-08-19T08:11:19;19.20;99.90
2407;DHT22;37709;53.480;9.688;2022-08-19T08:13:50;19.20;99.90
2407;DHT22;37709;53.480;9.688;2022-08-19T08:16:38;19.30;99.90
2407;DHT22;37709;53.480;9.688;2022-08-19T08:19:14;19.40;99.90
2407;DHT22;37709;53.480;9.688;2022-08-19T08:21:54;19.60;99.90
2407;DHT22;37709;53.480;9.688;2022-08-19T08:24:22;19.50;99.90
2407;DHT22;37709;53.480;9.688;2022-08-19T08:26:55;19.60;99.90
2407;DHT22;37709;53.480;9.688;2022-08-19T08:29:25;19.50;99.90
2407;DHT22;37709;53.480;9.688;2022-08-19T08:32:00;19.50;99.90
2407;DHT22;37709;53.480;9.688;2022-08-19T08:34:29;19.70;99.90
2407;DHT22;37709;53.480;9.688;2022-08-19T08:36:56;19.80;99.90
2407;DHT22;37709;53.480;9.688;2022-08-19T08:39:23;19.90;99.90
2407;DHT22;37709;53.480;9.688;2022-08-19T08:42:22;19.80;99.90
2407;DHT22;37709;53.480;9.688;2022-08-19T08:44:58;19.90;99.90
2407;DHT22;37709;53.480;9.688;2022-08-19T08:47:31;20.10;99.90
2407;DHT22;37709;53.480;9.688;2022-08-19T08:50:09;20.20;99.90
2407;DHT22;37709;53.480;9.688;2022-08-19T08:52:44;20.40;99.90
2407;DHT22;37709;53.480;9.688;2022-08-19T08:55:16;20.40;99.90
2407;DHT22;37709;53.480;9.688;2022-08-19T09:00:28;20.70;99.90
2407;DHT22;37709;53.480;9.688;2022-08-19T09:02:57;20.90;99.90
2407;DHT22;37709;53.480;9.688;2022-08-19T09:05:37;21.00;99.90
2407;DHT22;37709;53.480;9.688;2022-08-19T09:11:10;21.60;99.90
2407;DHT22;37709;53.480;9.688;2022-08-19T09:14:22;21.80;99.90
2407;DHT22;37709;53.480;9.688;2022-08-19T09:17:13;21.90;99.90
2407;DHT22;37709;53.480;9.688;2022-08-19T09:20:00;22.40;99.90
2407;DHT22;37709;53.480;9.688;2022-08-19T09:22:37;22.50;99.90
2407;DHT22;37709;53.480;9.688;2022-08-19T09:25:08;22.70;99.90
2407;DHT22;37709;53.480;9.688;2022-08-19T09:27:38;23.20;99.90
2407;DHT22;37709;53.480;9.688;2022-08-19T09:30:24;23.60;99.90
2407;DHT22;37709;53.480;9.688;2022-08-19T09:32:53;24.10;99.90
2407;DHT22;37709;53.480;9.688;2022-08-19T09:35:22;24.50;99.90
2407;DHT22;37709;53.480;9.688;2022-08-19T09:37:51;25.00;99.90
2407;DHT22;37709;53.480;9.688;2022-08-19T09:40:28;24.70;99.90
2407;DHT22;37709;53.480;9.688;2022-08-19T09:42:57;24.50;99.90
2407;DHT22;37709;53.480;9.688;2022-08-19T09:45:36;23.90;99.90
2407;DHT22;37709;53.480;9.688;2022-08-19T09:48:04;23.50;99.90
2407;DHT22;37709;53.480;9.688;2022-08-19T09:50:33;23.30;99.90
2407;DHT22;37709;53.480;9.688;2022-08-19T09:53:02;22.80;99.90
2407;DHT22;37709;53.480;9.688;2022-08-19T09:55:33;22.60;99.90
2407;DHT22;37709;53.480;9.688;2022-08-19T09:58:01;22.40;99.90
2407;DHT22;37709;53.480;9.688;2022-08-19T10:00:29;22.30;99.90
2407;DHT22;37709;53.480;9.688;2022-08-19T10:02:58;22.00;99.90
2407;DHT22;37709;53.480;9.688;2022-08-19T10:05:27;21.80;99.90
2407;DHT22;37709;53.480;9.688;2022-08-19T10:08:17;21.80;99.90
2407;DHT22;37709;53.480;9.688;2022-08-19T10:10:47;21.70;99.90
2407;DHT22;37709;53.480;9.688;2022-08-19T10:13:18;21.90;99.90
2407;DHT22;37709;53.480;9.688;2022-08-19T10:15:49;22.10;99.90
2407;DHT22;37709;53.480;9.688;2022-08-19T10:18:23;22.40;99.90
2407;DHT22;37709;53.480;9.688;2022-08-19T10:20:52;22.60;99.90
2407;DHT22;37709;53.480;9.688;2022-08-19T10:23:21;22.50;99.90
2407;DHT22;37709;53.480;9.688;2022-08-19T10:25:49;22.40;99.90
2407;DHT22;37709;53.480;9.688;2022-08-19T10:28:16;22.20;99.90
2407;DHT22;37709;53.480;9.688;2022-08-19T10:30:47;22.10;99.90
2407;DHT22;37709;53.480;9.688;2022-08-19T10:33:15;22.10;99.90
2407;DHT22;37709;53.480;9.688;2022-08-19T10:36:09;22.30;99.90
2407;DHT22;37709;53.480;9.688;2022-08-19T10:38:37;22.60;99.90
2407;DHT22;37709;53.480;9.688;2022-08-19T10:41:16;22.50;99.90
2407;DHT22;37709;53.480;9.688;2022-08-19T10:43:44;22.50;99.90
2407;DHT22;37709;53.480;9.688;2022-08-19T10:46:14;22.60;99.90
2407;DHT22;37709;53.480;9.688;2022-08-19T10:48:43;22.60;99.90
2407;DHT22;37709;53.480;9.688;2022-08-19T10:51:12;22.60;99.90
2407;DHT22;37709;53.480;9.688;2022-08-19T10:53:59;22.80;99.90
2407;DHT22;37709;53.480;9.688;2022-08-19T10:56:28;23.60;99.90
2407;DHT22;37709;53.480;9.688;2022-08-19T10:59:15;24.40;99.90
2407;DHT22;37709;53.480;9.688;2022-08-19T11:01:45;24.70;99.90
2407;DHT22;37709;53.480;9.688;2022-08-19T11:04:13;25.10;99.90
2407;DHT22;37709;53.480;9.688;2022-08-19T11:06:44;25.10;99.90
2407;DHT22;37709;53.480;9.688;2022-08-19T11:09:21;24.60;99.90
2407;DHT22;37709;53.480;9.688;2022-08-19T11:12:00;24.40;99.90
2407;DHT22;37709;53.480;9.688;2022-08-19T11:14:31;24.60;99.90
2407;DHT22;37709;53.480;9.688;2022-08-19T11:17:02;24.80;99.90
2407;DHT22;37709;53.480;9.688;2022-08-19T11:19:31;25.00;99.90
2407;DHT22;37709;53.480;9.688;2022-08-19T11:21:58;25.10;99.90
2407;DHT22;37709;53.480;9.688;2022-08-19T11:24:30;25.50;99.90
2407;DHT22;37709;53.480;9.688;2022-08-19T11:27:05;25.70;99.90
2407;DHT22;37709;53.480;9.688;2022-08-19T11:29:33;25.80;99.90
2407;DHT22;37709;53.480;9.688;2022-08-19T11:32:07;25.90;99.90
2407;DHT22;37709;53.480;9.688;2022-08-19T11:34:36;25.80;99.90
2407;DHT22;37709;53.480;9.688;2022-08-19T11:37:04;25.60;99.90
2407;DHT22;37709;53.480;9.688;2022-08-19T11:39:34;25.50;99.90
2407;DHT22;37709;53.480;9.688;2022-08-19T11:42:05;25.60;99.90
2407;DHT22;37709;53.480;9.688;2022-08-19T11:44:57;26.00;99.90
2407;DHT22;37709;53.480;9.688;2022-08-19T11:47:25;26.40;99.90
2407;DHT22;37709;53.480;9.688;2022-08-19T11:49:53;26.90;99.90
2407;DHT22;37709;53.480;9.688;2022-08-19T11:52:20;27.50;99.90
2407;DHT22;37709;53.480;9.688;2022-08-19T11:54:48;28.20;99.90
2407;DHT22;37709;53.480;9.688;2022-08-19T11:57:16;28.90;99.90
2407;DHT22;37709;53.480;9.688;2022-08-19T11:59:48;29.70;99.90
2407;DHT22;37709;53.480;9.688;2022-08-19T12:02:16;29.90;99.90
2407;DHT22;37709;53.480;9.688;2022-08-19T12:04:44;29.80;99.30
2407;DHT22;37709;53.480;9.688;2022-08-19T12:07:12;29.80;99.00
2407;DHT22;37709;53.480;9.688;2022-08-19T12:09:39;29.60;99.20
2407;DHT22;37709;53.480;9.688;2022-08-19T12:12:09;29.30;99.60
2407;DHT22;37709;53.480;9.688;2022-08-19T12:14:36;29.20;99.90
2407;DHT22;37709;53.480;9.688;2022-08-19T12:17:04;29.50;99.00
2407;DHT22;37709;53.480;9.688;2022-08-19T12:19:36;29.60;99.10
2407;DHT22;37709;53.480;9.688;2022-08-19T12:22:04;29.50;99.00
2407;DHT22;37709;53.480;9.688;2022-08-19T12:24:33;29.60;98.60
2407;DHT22;37709;53.480;9.688;2022-08-19T12:27:01;29.70;99.00
2407;DHT22;37709;53.480;9.688;2022-08-19T12:29:29;30.10;98.00
2407;DHT22;37709;53.480;9.688;2022-08-19T12:31:58;30.20;98.20
2407;DHT22;37709;53.480;9.688;2022-08-19T12:34:31;30.10;98.10
2407;DHT22;37709;53.480;9.688;2022-08-19T12:37:01;29.80;98.40
2407;DHT22;37709;53.480;9.688;2022-08-19T12:39:33;29.50;97.90
2407;DHT22;37709;53.480;9.688;2022-08-19T12:42:01;29.00;98.60
2407;DHT22;37709;53.480;9.688;2022-08-19T12:44:29;28.70;99.30
2407;DHT22;37709;53.480;9.688;2022-08-19T12:46:59;28.80;99.10
2407;DHT22;37709;53.480;9.688;2022-08-19T12:49:30;28.80;99.00
2407;DHT22;37709;53.480;9.688;2022-08-19T12:52:18;28.90;99.10
2407;DHT22;37709;53.480;9.688;2022-08-19T12:54:51;29.20;98.10
2407;DHT22;37709;53.480;9.688;2022-08-19T12:57:23;29.20;97.70
2407;DHT22;37709;53.480;9.688;2022-08-19T13:00:06;29.30;97.80
2407;DHT22;37709;53.480;9.688;2022-08-19T13:02:43;29.40;97.30
2407;DHT22;37709;53.480;9.688;2022-08-19T13:05:14;29.80;97.30
2407;DHT22;37709;53.480;9.688;2022-08-19T13:07:43;30.00;97.00
2407;DHT22;37709;53.480;9.688;2022-08-19T13:10:13;30.40;96.80
2407;DHT22;37709;53.480;9.688;2022-08-19T13:12:46;30.20;96.70
2407;DHT22;37709;53.480;9.688;2022-08-19T13:15:16;30.00;96.80
2407;DHT22;37709;53.480;9.688;2022-08-19T13:17:52;29.90;97.50
2407;DHT22;37709;53.480;9.688;2022-08-19T13:20:20;30.20;97.10
2407;DHT22;37709;53.480;9.688;2022-08-19T13:22:48;30.10;97.40
2407;DHT22;37709;53.480;9.688;2022-08-19T13:25:17;30.10;96.90
2407;DHT22;37709;53.480;9.688;2022-08-19T13:27:48;30.00;96.90
2407;DHT22;37709;53.480;9.688;2022-08-19T13:30:18;30.10;96.90
2407;DHT22;37709;53.480;9.688;2022-08-19T13:33:06;30.20;96.20
2407;DHT22;37709;53.480;9.688;2022-08-19T13:35:51;30.10;96.70
2407;DHT22;37709;53.480;9.688;2022-08-19T13:38:24;30.00;96.30
2407;DHT22;37709;53.480;9.688;2022-08-19T13:40:53;30.00;96.40
2407;DHT22;37709;53.480;9.688;2022-08-19T13:43:22;29.90;96.20
2407;DHT22;37709;53.480;9.688;2022-08-19T13:45:53;30.70;95.50
2407;DHT22;37709;53.480;9.688;2022-08-19T13:48:24;30.60;95.70
2407;DHT22;37709;53.480;9.688;2022-08-19T13:50:54;31.10;95.70
2407;DHT22;37709;53.480;9.688;2022-08-19T13:53:22;32.00;94.10
2407;DHT22;37709;53.480;9.688;2022-08-19T13:55:49;32.70;93.90
2407;DHT22;37709;53.480;9.688;2022-08-19T13:58:18;34.50;91.50
2407;DHT22;37709;53.480;9.688;2022-08-19T14:00:46;32.80;91.90
2407;DHT22;37709;53.480;9.688;2022-08-19T14:03:14;30.90;94.20
2407;DHT22;37709;53.480;9.688;2022-08-19T14:05:42;29.70;95.50
2407;DHT22;37709;53.480;9.688;2022-08-19T14:08:09;28.90;96.50
2407;DHT22;37709;53.480;9.688;2022-08-19T14:10:37;28.40;96.80
2407;DHT22;37709;53.480;9.688;2022-08-19T14:13:04;27.60;97.50
2407;DHT22;37709;53.480;9.688;2022-08-19T14:15:32;27.10;98.30
2407;DHT22;37709;53.480;9.688;2022-08-19T14:18:00;26.90;99.00
2407;DHT22;37709;53.480;9.688;2022-08-19T14:20:28;27.20;99.00
2407;DHT22;37709;53.480;9.688;2022-08-19T14:22:55;27.40;98.20
2407;DHT22;37709;53.480;9.688;2022-08-19T14:25:27;27.60;98.00
2407;DHT22;37709;53.480;9.688;2022-08-19T14:27:55;27.80;97.90
2407;DHT22;37709;53.480;9.688;2022-08-19T14:30:32;28.00;98.10
2407;DHT22;37709;53.480;9.688;2022-08-19T14:33:01;28.10;97.60
2407;DHT22;37709;53.480;9.688;2022-08-19T14:35:30;29.40;96.70
2407;DHT22;37709;53.480;9.688;2022-08-19T14:38:03;31.80;94.80
2407;DHT22;37709;53.480;9.688;2022-08-19T14:40:33;32.10;93.40
2407;DHT22;37709;53.480;9.688;2022-08-19T14:43:02;31.80;93.30
2407;DHT22;37709;53.480;9.688;2022-08-19T14:45:33;31.80;92.90
2407;DHT22;37709;53.480;9.688;2022-08-19T14:48:07;31.60;92.30
2407;DHT22;37709;53.480;9.688;2022-08-19T14:50:45;31.10;93.10
2407;DHT22;37709;53.480;9.688;2022-08-19T14:53:13;30.80;93.40
2407;DHT22;37709;53.480;9.688;2022-08-19T14:55:42;31.10;93.30
2407;DHT22;37709;53.480;9.688;2022-08-19T14:58:10;31.40;92.90
2407;DHT22;37709;53.480;9.688;2022-08-19T15:01:00;31.30;92.50
2407;DHT22;37709;53.480;9.688;2022-08-19T15:03:28;31.50;92.30
2407;DHT22;37709;53.480;9.688;2022-08-19T15:05:59;31.70;92.60
2407;DHT22;37709;53.480;9.688;2022-08-19T15:08:29;31.20;92.70
2407;DHT22;37709;53.480;9.688;2022-08-19T15:10:57;31.00;92.80
2407;DHT22;37709;53.480;9.688;2022-08-19T15:13:27;30.70;93.00
2407;DHT22;37709;53.480;9.688;2022-08-19T15:15:55;30.60;93.00
2407;DHT22;37709;53.480;9.688;2022-08-19T15:18:24;31.30;93.20
2407;DHT22;37709;53.480;9.688;2022-08-19T15:20:52;31.60;93.20
2407;DHT22;37709;53.480;9.688;2022-08-19T15:23:20;31.80;92.40
2407;DHT22;37709;53.480;9.688;2022-08-19T15:25:48;32.20;91.60
2407;DHT22;37709;53.480;9.688;2022-08-19T15:28:25;32.00;91.90
2407;DHT22;37709;53.480;9.688;2022-08-19T15:30:52;31.70;92.10
2407;DHT22;37709;53.480;9.688;2022-08-19T15:33:19;31.30;92.40
2407;DHT22;37709;53.480;9.688;2022-08-19T15:35:49;31.10;93.00
2407;DHT22;37709;53.480;9.688;2022-08-19T15:38:20;30.70;92.70
2407;DHT22;37709;53.480;9.688;2022-08-19T15:40:49;30.80;92.80
2407;DHT22;37709;53.480;9.688;2022-08-19T15:43:18;30.90;92.40
2407;DHT22;37709;53.480;9.688;2022-08-19T15:45:48;30.60;92.90
2407;DHT22;37709;53.480;9.688;2022-08-19T15:48:15;31.10;93.10
2407;DHT22;37709;53.480;9.688;2022-08-19T15:50:44;31.40;92.70
2407;DHT22;37709;53.480;9.688;2022-08-19T15:53:12;31.40;92.50
2407;DHT22;37709;53.480;9.688;2022-08-19T15:55:44;31.40;92.80
2407;DHT22;37709;53.480;9.688;2022-08-19T15:58:13;31.20;92.80
2407;DHT22;37709;53.480;9.688;2022-08-19T16:01:03;31.30;93.20
2407;DHT22;37709;53.480;9.688;2022-08-19T16:03:51;30.80;92.70
2407;DHT22;37709;53.480;9.688;2022-08-19T16:06:50;30.50;93.30
2407;DHT22;37709;53.480;9.688;2022-08-19T16:09:20;30.70;94.00
2407;DHT22;37709;53.480;9.688;2022-08-19T16:11:58;30.60;93.60
2407;DHT22;37709;53.480;9.688;2022-08-19T16:14:31;30.40;93.90
2407;DHT22;37709;53.480;9.688;2022-08-19T16:16:59;30.70;93.50